createdAt,value
2023-02-02T00:00:25.814Z,96787.47
2023-02-02T00:01:27.794Z,96805.41
2023-02-02T00:02:29.717Z,96799.25
2023-02-02T00:03:31.974Z,96805.88
2023-02-02T00:04:35.470Z,96827.34
2023-02-02T00:05:37.907Z,96849.31
2023-02-02T00:06:39.761Z,96837.19
2023-02-02T00:07:41.749Z,96801.00
2023-02-02T00:08:43.708Z,96782.88
2023-02-02T00:09:45.544Z,96841.56
2023-02-02T00:10:47.839Z,96905.03
2023-02-02T00:11:51.343Z,96830.69
2023-02-02T00:12:54.312Z,96799.03
2023-02-02T00:13:56.226Z,96752.97
2023-02-02T00:14:58.358Z,96802.22
2023-02-02T00:16:00.423Z,96828.41
2023-02-02T00:17:02.290Z,96822.22
2023-02-02T00:18:04.655Z,96825.97
2023-02-02T00:19:11.336Z,96832.94
2023-02-02T00:20:13.161Z,96816.25
2023-02-02T00:21:15.006Z,96830.00
2023-02-02T00:22:17.356Z,96768.91
2023-02-02T00:23:19.415Z,96806.06
2023-02-02T00:24:22.020Z,96801.09
2023-02-02T00:25:24.075Z,96819.19
2023-02-02T00:26:27.280Z,96803.16
2023-02-02T00:27:29.192Z,96776.94
2023-02-02T00:28:31.100Z,96794.25
2023-02-02T00:29:32.978Z,96819.31
2023-02-02T00:30:34.791Z,96814.16
2023-02-02T00:31:36.887Z,96797.63
2023-02-02T00:32:38.714Z,96817.53
2023-02-02T00:33:44.792Z,96783.13
2023-02-02T00:34:46.693Z,96774.56
2023-02-02T00:35:48.591Z,96771.13
2023-02-02T00:36:51.107Z,96805.75
2023-02-02T00:37:52.988Z,96771.13
2023-02-02T00:38:54.934Z,96803.97
2023-02-02T00:39:56.716Z,96781.47
2023-02-02T00:40:58.565Z,96777.16
2023-02-02T00:42:00.418Z,96775.34
2023-02-02T00:43:02.302Z,96775.34
2023-02-02T00:44:22.977Z,96753.66
2023-02-02T00:45:26.440Z,96767.25
2023-02-02T00:46:28.424Z,96762.53
2023-02-02T00:47:30.248Z,96786.44
2023-02-02T00:48:32.037Z,96774.34
2023-02-02T00:49:33.916Z,96788.41
2023-02-02T00:50:35.741Z,96782.25
2023-02-02T00:51:37.924Z,96795.66
2023-02-02T00:52:39.707Z,96782.22
2023-02-02T00:53:41.541Z,96772.66
2023-02-02T00:54:43.476Z,96770.06
2023-02-02T00:55:45.270Z,96782.84
2023-02-02T00:56:47.066Z,96776.88
2023-02-02T00:57:48.960Z,96748.41
2023-02-02T00:58:50.726Z,96768.28
2023-02-02T00:59:52.650Z,96770.88
2023-02-02T01:00:54.610Z,96775.25
2023-02-02T01:01:56.557Z,96773.47
2023-02-02T01:03:04.553Z,96789.97
2023-02-02T01:04:06.583Z,96770.44
2023-02-02T01:05:08.647Z,96781.91
2023-02-02T01:06:10.829Z,96810.88
2023-02-02T01:07:12.736Z,96783.38
2023-02-02T01:08:14.560Z,96784.38
2023-02-02T01:09:16.730Z,96783.59
2023-02-02T01:10:19.120Z,96773.88
2023-02-02T01:11:21.014Z,96793.75
2023-02-02T01:12:22.885Z,96796.16
2023-02-02T01:13:24.801Z,96754.13
2023-02-02T01:14:26.812Z,96765.66
2023-02-02T01:15:30.717Z,96779.53
2023-02-02T01:16:33.050Z,96749.31
2023-02-02T01:17:34.936Z,96760.78
2023-02-02T01:18:37.076Z,96770.97
2023-02-02T01:19:38.863Z,96745.13
2023-02-02T01:20:40.701Z,96773.56
2023-02-02T01:21:43.107Z,96789.88
2023-02-02T01:22:45.316Z,96762.75
2023-02-02T01:23:47.224Z,96789.75
2023-02-02T01:24:49.628Z,96751.34
2023-02-02T01:25:57.956Z,96735.00
2023-02-02T01:26:59.965Z,96767.66
2023-02-02T01:28:01.793Z,96798.94
2023-02-02T01:29:03.667Z,96799.59
2023-02-02T01:30:05.804Z,96767.75
2023-02-02T01:31:09.186Z,96728.81
2023-02-02T01:32:11.298Z,96743.69
2023-02-02T01:33:13.117Z,96753.66
2023-02-02T01:34:15.001Z,96767.44
2023-02-02T01:35:16.989Z,96757.09
2023-02-02T01:36:20.380Z,96776.00
2023-02-02T01:37:22.635Z,96808.63
2023-02-02T01:38:24.743Z,96812.84
2023-02-02T01:39:26.606Z,96809.25
2023-02-02T01:40:28.415Z,96785.19
2023-02-02T01:41:30.363Z,96772.41
2023-02-02T01:42:32.211Z,96779.22
2023-02-02T01:43:43.415Z,96766.44
2023-02-02T01:45:04.004Z,96764.66
2023-02-02T01:46:06.082Z,96763.22
2023-02-02T01:47:08.020Z,96770.34
2023-02-02T01:48:09.876Z,96748.69
2023-02-02T01:49:13.523Z,96725.59
2023-02-02T01:50:17.241Z,96780.22
2023-02-02T01:51:21.340Z,96787.34
2023-02-02T01:52:24.747Z,96758.91
2023-02-02T01:53:26.831Z,96741.00
2023-02-02T01:54:31.583Z,96750.50
2023-02-02T01:55:35.567Z,96753.41
2023-02-02T01:56:42.722Z,96730.75
2023-02-02T01:57:53.210Z,96771.34
2023-02-02T01:58:55.222Z,96780.84
2023-02-02T01:59:59.859Z,96757.78
2023-02-02T02:01:01.821Z,96770.88
2023-02-02T02:02:03.778Z,96761.31
2023-02-02T02:03:08.502Z,96767.91
2023-02-02T02:04:10.699Z,96755.00
2023-02-02T02:05:15.743Z,96768.75
2023-02-02T02:06:19.099Z,96773.72
2023-02-02T02:07:21.500Z,96760.78
2023-02-02T02:08:31.155Z,96772.94
2023-02-02T02:09:34.094Z,96787.81
2023-02-02T02:10:36.045Z,96767.75
2023-02-02T02:11:37.954Z,96752.72
2023-02-02T02:12:39.770Z,96763.84
2023-02-02T02:14:00.361Z,96769.66
2023-02-02T02:15:21.001Z,96751.22
2023-02-02T02:16:32.071Z,96766.38
2023-02-02T02:17:33.899Z,96767.53
2023-02-02T02:18:55.636Z,96762.38
2023-02-02T02:20:31.243Z,96763.34
2023-02-02T02:21:56.501Z,96807.31
2023-02-02T02:23:16.708Z,96793.41
2023-02-02T02:24:51.403Z,96763.84
2023-02-02T02:26:32.980Z,96757.09
2023-02-02T02:27:59.180Z,96771.78
2023-02-02T02:29:02.389Z,96731.84
2023-02-02T02:30:07.374Z,96753.50
2023-02-02T02:31:20.385Z,96759.03
2023-02-02T02:32:34.190Z,96748.50
2023-02-02T02:33:45.000Z,96762.06
2023-02-02T02:34:51.656Z,96765.28
2023-02-02T02:36:02.453Z,96759.94
2023-02-02T02:37:07.552Z,96762.38
2023-02-02T02:38:12.712Z,96759.63
2023-02-02T02:39:18.985Z,96769.16
2023-02-02T02:40:31.476Z,96764.00
2023-02-02T02:41:35.205Z,96763.16
2023-02-02T02:42:40.002Z,96759.16
2023-02-02T02:43:49.762Z,96764.66
2023-02-02T02:44:53.620Z,96764.66
2023-02-02T02:45:55.749Z,96761.44
2023-02-02T02:46:57.628Z,96730.75
2023-02-02T02:48:00.076Z,96731.91
2023-02-02T02:49:01.980Z,96720.75
2023-02-02T02:50:04.006Z,96728.50
2023-02-02T02:51:10.112Z,96742.25
2023-02-02T02:52:12.019Z,96755.81
2023-02-02T02:53:19.058Z,96730.75
2023-02-02T02:54:26.903Z,96727.53
2023-02-02T02:55:32.108Z,96738.84
2023-02-02T02:56:38.438Z,96731.09
2023-02-02T02:57:55.339Z,96719.94
2023-02-02T02:59:07.136Z,96740.47
2023-02-02T03:00:15.789Z,96737.88
2023-02-02T03:01:21.528Z,96728.69
2023-02-02T03:02:32.347Z,96744.53
2023-02-02T03:03:37.610Z,96758.63
2023-02-02T03:04:54.793Z,96763.78
2023-02-02T03:06:01.960Z,96768.59
2023-02-02T03:07:07.843Z,96737.41
2023-02-02T03:08:09.614Z,96739.38
2023-02-02T03:09:13.852Z,96735.81
2023-02-02T03:10:18.651Z,96747.28
2023-02-02T03:11:21.121Z,96746.38
2023-02-02T03:12:23.153Z,96733.13
2023-02-02T03:13:26.310Z,96742.50
2023-02-02T03:14:28.130Z,96732.97
2023-02-02T03:15:29.990Z,96708.53
2023-02-02T03:16:31.840Z,96729.22
2023-02-02T03:17:33.664Z,96725.84
2023-02-02T03:18:35.806Z,96731.66
2023-02-02T03:19:37.739Z,96746.84
2023-02-02T03:20:39.726Z,96721.44
2023-02-02T03:21:41.582Z,96702.38
2023-02-02T03:22:43.473Z,96715.28
2023-02-02T03:23:45.224Z,96719.47
2023-02-02T03:24:47.033Z,96757.31
2023-02-02T03:25:48.875Z,96796.72
2023-02-02T03:26:50.804Z,96746.59
2023-02-02T03:27:53.472Z,96688.13
2023-02-02T03:28:56.910Z,96696.84
2023-02-02T03:29:58.906Z,96703.78
2023-02-02T03:31:02.579Z,96733.03
2023-02-02T03:32:04.784Z,96751.13
2023-02-02T03:33:07.510Z,96752.28
2023-02-02T03:34:09.407Z,96728.56
2023-02-02T03:35:11.258Z,96754.75
2023-02-02T03:36:13.155Z,96800.34
2023-02-02T03:37:14.965Z,96807.97
2023-02-02T03:38:16.921Z,96791.84
2023-02-02T03:39:18.976Z,96787.34
2023-02-02T03:40:20.858Z,96787.22
2023-02-02T03:41:22.703Z,96816.94
2023-02-02T03:42:24.516Z,96839.28
2023-02-02T03:43:26.534Z,96846.69
2023-02-02T03:44:28.451Z,96863.66
2023-02-02T03:45:30.666Z,96863.22
2023-02-02T03:46:32.619Z,96871.91
2023-02-02T03:47:34.483Z,96842.53
2023-02-02T03:48:37.373Z,96852.41
2023-02-02T03:49:39.212Z,96862.88
2023-02-02T03:50:41.092Z,96867.03
2023-02-02T03:51:44.503Z,96889.63
2023-02-02T03:52:46.385Z,96891.41
2023-02-02T03:53:48.258Z,96900.56
2023-02-02T03:54:50.150Z,96905.72
2023-02-02T03:55:52.021Z,96906.19
2023-02-02T03:56:53.844Z,96898.47
2023-02-02T03:57:55.732Z,96897.47
2023-02-02T03:58:57.706Z,96891.50
2023-02-02T03:59:59.527Z,96899.38
2023-02-02T04:01:05.723Z,96897.00
2023-02-02T04:02:07.620Z,96895.69
2023-02-02T04:03:09.459Z,96908.22
2023-02-02T04:04:11.405Z,96913.22
2023-02-02T04:05:13.248Z,96908.84
2023-02-02T04:06:15.225Z,96911.13
2023-02-02T04:07:17.012Z,96900.16
2023-02-02T04:08:18.888Z,96915.13
2023-02-02T04:09:20.952Z,96908.50
2023-02-02T04:10:23.258Z,96907.22
2023-02-02T04:11:25.073Z,96905.63
2023-02-02T04:12:26.981Z,96910.13
2023-02-02T04:13:28.791Z,96915.88
2023-02-02T04:14:30.726Z,96923.84
2023-02-02T04:15:32.564Z,96917.75
2023-02-02T04:16:37.893Z,96916.78
2023-02-02T04:17:39.880Z,96921.78
2023-02-02T04:18:41.792Z,96921.63
2023-02-02T04:19:43.709Z,96924.88
2023-02-02T04:20:45.538Z,96921.63
2023-02-02T04:21:47.411Z,96922.75
2023-02-02T04:22:49.303Z,96930.66
2023-02-02T04:23:51.098Z,96926.63
2023-02-02T04:24:53.100Z,96923.06
2023-02-02T04:25:55.136Z,96935.28
2023-02-02T04:26:56.974Z,96938.00
2023-02-02T04:27:58.827Z,96939.00
2023-02-02T04:29:00.634Z,96941.56
2023-02-02T04:30:02.546Z,96940.72
2023-02-02T04:31:04.541Z,96945.59
2023-02-02T04:32:06.388Z,96937.22
2023-02-02T04:33:08.236Z,96944.28
2023-02-02T04:34:10.160Z,96939.13
2023-02-02T04:35:12.054Z,96946.72
2023-02-02T04:36:13.888Z,96946.41
2023-02-02T04:37:15.736Z,96943.03
2023-02-02T04:38:17.577Z,96937.81
2023-02-02T04:39:19.395Z,96937.81
2023-02-02T04:40:21.321Z,96935.25
2023-02-02T04:41:23.254Z,96933.78
2023-02-02T04:42:25.160Z,96942.31
2023-02-02T04:43:27.090Z,96950.06
2023-02-02T04:44:28.967Z,96944.75
2023-02-02T04:45:30.984Z,96954.22
2023-02-02T04:46:32.820Z,96959.69
2023-02-02T04:47:34.576Z,96950.81
2023-02-02T04:48:37.043Z,96954.50
2023-02-02T04:49:38.895Z,96955.63
2023-02-02T04:50:40.806Z,96953.66
2023-02-02T04:51:42.728Z,96954.59
2023-02-02T04:52:47.394Z,96951.22
2023-02-02T04:53:49.276Z,96959.88
2023-02-02T04:54:51.176Z,96954.59
2023-02-02T04:55:53.147Z,96951.06
2023-02-02T04:56:55.003Z,96941.56
2023-02-02T04:57:56.841Z,96945.59
2023-02-02T04:58:59.128Z,96947.22
2023-02-02T05:00:00.956Z,96962.69
2023-02-02T05:01:08.291Z,96953.19
2023-02-02T05:02:10.533Z,96956.88
2023-02-02T05:03:12.707Z,96957.03
2023-02-02T05:04:14.557Z,96956.22
2023-02-02T05:05:16.451Z,96957.16
2023-02-02T05:06:19.808Z,96956.38
2023-02-02T05:07:21.796Z,96956.78
2023-02-02T05:08:23.732Z,96946.94
2023-02-02T05:09:25.807Z,96941.13
2023-02-02T05:10:27.772Z,96941.47
2023-02-02T05:11:31.176Z,96934.16
2023-02-02T05:12:33.114Z,96954.47
2023-02-02T05:13:34.976Z,96948.22
2023-02-02T05:14:36.907Z,96950.50
2023-02-02T05:15:38.731Z,96937.63
2023-02-02T05:16:40.820Z,96950.50
2023-02-02T05:17:42.734Z,96948.72
2023-02-02T05:18:49.248Z,96958.66
2023-02-02T05:19:51.144Z,96950.25
2023-02-02T05:20:53.245Z,96952.34
2023-02-02T05:21:56.227Z,96951.03
2023-02-02T05:22:58.090Z,96958.44
2023-02-02T05:24:01.466Z,96958.31
2023-02-02T05:25:03.458Z,96965.97
2023-02-02T05:26:05.304Z,96966.69
2023-02-02T05:27:07.147Z,96969.28
2023-02-02T05:28:09.999Z,96970.91
2023-02-02T05:29:11.891Z,96969.00
2023-02-02T05:30:14.357Z,96971.56
2023-02-02T05:31:16.276Z,96968.69
2023-02-02T05:32:18.267Z,96973.16
2023-02-02T05:33:20.256Z,96959.50
2023-02-02T05:34:22.799Z,96968.47
2023-02-02T05:35:25.097Z,96957.00
2023-02-02T05:36:27.330Z,96956.03
2023-02-02T05:37:29.155Z,96967.28
2023-02-02T05:38:31.106Z,96976.78
2023-02-02T05:39:32.954Z,96973.91
2023-02-02T05:40:34.823Z,96983.91
2023-02-02T05:41:36.781Z,96981.22
2023-02-02T05:42:38.590Z,96979.44
2023-02-02T05:43:40.471Z,96984.72
2023-02-02T05:44:42.410Z,96995.97
2023-02-02T05:45:44.309Z,96997.47
2023-02-02T05:46:46.341Z,96994.06
2023-02-02T05:47:48.188Z,96993.91
2023-02-02T05:48:50.093Z,96986.50
2023-02-02T05:49:51.956Z,96991.78
2023-02-02T05:51:03.008Z,96985.84
2023-02-02T05:52:05.490Z,96987.88
2023-02-02T05:53:07.341Z,96993.84
2023-02-02T05:54:09.308Z,96989.34
2023-02-02T05:55:11.210Z,97000.63
2023-02-02T05:56:13.501Z,96999.78
2023-02-02T05:57:15.371Z,97000.63
2023-02-02T05:58:17.188Z,97003.84
2023-02-02T05:59:19.733Z,97006.44
2023-02-02T06:00:21.812Z,97001.94
2023-02-02T06:01:23.582Z,97005.59
2023-02-02T06:02:25.540Z,96998.19
2023-02-02T06:03:27.550Z,97000.69
2023-02-02T06:04:29.596Z,97005.69
2023-02-02T06:05:31.456Z,97002.66
2023-02-02T06:06:35.798Z,97010.84
2023-02-02T06:07:37.729Z,97014.06
2023-02-02T06:08:39.619Z,97023.53
2023-02-02T06:09:41.522Z,97017.91
2023-02-02T06:10:43.579Z,97019.63
2023-02-02T06:11:45.722Z,97018.97
2023-02-02T06:12:47.640Z,97037.16
2023-02-02T06:13:49.469Z,97038.75
2023-02-02T06:14:51.400Z,97052.03
2023-02-02T06:15:53.315Z,97032.09
2023-02-02T06:16:55.214Z,97034.94
2023-02-02T06:17:58.507Z,97038.63
2023-02-02T06:19:00.378Z,97036.56
2023-02-02T06:20:02.272Z,97056.06
2023-02-02T06:21:06.362Z,97052.69
2023-02-02T06:22:08.258Z,97050.38
2023-02-02T06:23:12.182Z,97050.38
2023-02-02T06:24:14.017Z,97047.81
2023-02-02T06:25:16.004Z,97044.44
2023-02-02T06:26:18.383Z,97038.50
2023-02-02T06:27:21.094Z,97067.75
2023-02-02T06:28:22.912Z,97066.94
2023-02-02T06:29:24.782Z,97062.59
2023-02-02T06:30:27.624Z,97055.84
2023-02-02T06:31:29.524Z,97063.25
2023-02-02T06:32:31.572Z,97057.97
2023-02-02T06:33:33.433Z,97063.78
2023-02-02T06:34:35.296Z,97055.91
2023-02-02T06:35:37.153Z,97060.91
2023-02-02T06:36:38.963Z,97064.97
2023-02-02T06:37:42.534Z,97058.19
2023-02-02T06:38:44.513Z,97063.34
2023-02-02T06:39:46.378Z,97068.47
2023-02-02T06:40:48.228Z,97057.25
2023-02-02T06:41:52.362Z,97056.94
2023-02-02T06:42:58.188Z,97052.59
2023-02-02T06:44:00.037Z,97053.28
2023-02-02T06:45:02.629Z,97049.59
2023-02-02T06:46:04.550Z,97057.19
2023-02-02T06:47:06.389Z,97055.28
2023-02-02T06:48:11.159Z,97053.78
2023-02-02T06:49:13.202Z,97046.38
2023-02-02T06:50:15.115Z,97049.75
2023-02-02T06:51:16.999Z,97043.78
2023-02-02T06:52:18.802Z,97042.47
2023-02-02T06:53:23.551Z,97045.84
2023-02-02T06:54:25.479Z,97048.28
2023-02-02T06:55:27.484Z,97060.31
2023-02-02T06:56:29.976Z,97054.69
2023-02-02T06:57:31.865Z,97046.13
2023-02-02T06:58:34.281Z,97042.75
2023-02-02T06:59:36.208Z,97049.81
2023-02-02T07:00:38.481Z,97044.66
2023-02-02T07:01:40.422Z,97051.44
2023-02-02T07:02:45.296Z,97050.03
2023-02-02T07:03:51.466Z,97047.31
2023-02-02T07:04:53.502Z,97048.63
2023-02-02T07:05:55.285Z,97042.69
2023-02-02T07:06:57.147Z,97045.91
2023-02-02T07:07:58.933Z,97053.66
2023-02-02T07:09:03.062Z,97062.16
2023-02-02T07:10:05.468Z,97059.31
2023-02-02T07:11:12.913Z,97073.97
2023-02-02T07:12:19.736Z,97065.94
2023-02-02T07:13:21.823Z,97063.50
2023-02-02T07:14:23.598Z,97065.13
2023-02-02T07:15:25.802Z,97067.56
2023-02-02T07:16:27.816Z,97064.81
2023-02-02T07:17:29.758Z,97066.75
2023-02-02T07:18:32.056Z,97073.78
2023-02-02T07:19:33.969Z,97081.38
2023-02-02T07:20:35.817Z,97076.53
2023-02-02T07:21:37.711Z,97073.13
2023-02-02T07:22:40.119Z,97063.28
2023-02-02T07:23:42.020Z,97076.59
2023-02-02T07:24:43.904Z,97079.31
2023-02-02T07:25:45.882Z,97075.28
2023-02-02T07:26:47.724Z,97088.81
2023-02-02T07:27:55.541Z,97078.34
2023-02-02T07:28:57.439Z,97081.75
2023-02-02T07:29:59.326Z,97095.88
2023-02-02T07:31:01.535Z,97090.53
2023-02-02T07:32:03.557Z,97080.41
2023-02-02T07:33:05.496Z,97073.50
2023-02-02T07:34:07.407Z,97098.13
2023-02-02T07:35:09.390Z,97109.75
2023-02-02T07:36:11.755Z,97079.19
2023-02-02T07:37:13.626Z,97104.78
2023-02-02T07:38:15.680Z,97112.19
2023-02-02T07:39:17.524Z,97117.50
2023-02-02T07:40:19.457Z,97113.59
2023-02-02T07:41:21.349Z,97109.53
2023-02-02T07:42:23.170Z,97104.09
2023-02-02T07:43:25.147Z,97118.72
2023-02-02T07:44:26.973Z,97115.88
2023-02-02T07:45:29.141Z,97118.31
2023-02-02T07:46:31.564Z,97129.69
2023-02-02T07:47:33.422Z,97124.69
2023-02-02T07:48:35.404Z,97137.56
2023-02-02T07:49:37.208Z,97129.34
2023-02-02T07:50:39.045Z,97135.41
2023-02-02T07:51:46.359Z,97137.72
2023-02-02T07:52:49.563Z,97139.63
2023-02-02T07:53:52.511Z,97132.19
2023-02-02T07:54:59.923Z,97152.50
2023-02-02T07:56:13.007Z,97128.34
2023-02-02T07:57:17.901Z,97130.13
2023-02-02T07:58:19.765Z,97129.16
2023-02-02T07:59:21.626Z,97144.78
2023-02-02T08:00:23.923Z,97115.34
2023-02-02T08:01:26.743Z,97127.25
2023-02-02T08:02:28.872Z,97129.69
2023-02-02T08:03:30.851Z,97139.19
2023-02-02T08:04:34.733Z,97140.66
2023-02-02T08:05:36.596Z,97141.63
2023-02-02T08:06:39.400Z,97133.25
2023-02-02T08:07:41.256Z,97141.09
2023-02-02T08:08:43.219Z,97135.66
2023-02-02T08:09:48.845Z,97132.78
2023-02-02T08:10:51.707Z,97128.19
2023-02-02T08:11:53.563Z,97112.72
2023-02-02T08:12:55.530Z,97140.09
2023-02-02T08:13:58.915Z,97133.19
2023-02-02T08:15:00.986Z,97137.81
2023-02-02T08:16:02.962Z,97133.47
2023-02-02T08:17:04.917Z,97131.03
2023-02-02T08:18:06.685Z,97129.69
2023-02-02T08:19:09.959Z,97145.13
2023-02-02T08:20:13.379Z,97148.38
2023-02-02T08:21:16.308Z,97142.44
2023-02-02T08:22:20.278Z,97141.63
2023-02-02T08:23:23.932Z,97140.28
2023-02-02T08:24:25.833Z,97161.16
2023-02-02T08:25:27.846Z,97167.28
2023-02-02T08:26:30.955Z,97163.88
2023-02-02T08:27:32.808Z,97162.41
2023-02-02T08:28:36.632Z,97168.22
2023-02-02T08:29:39.353Z,97163.06
2023-02-02T08:30:41.304Z,97155.34
2023-02-02T08:31:44.596Z,97152.09
2023-02-02T08:32:46.443Z,97158.06
2023-02-02T08:33:48.324Z,97159.81
2023-02-02T08:34:52.034Z,97162.53
2023-02-02T08:35:53.949Z,97164.44
2023-02-02T08:36:55.818Z,97166.59
2023-02-02T08:37:57.770Z,97172.44
2023-02-02T08:39:03.677Z,97166.31
2023-02-02T08:40:05.845Z,97168.22
2023-02-02T08:41:08.662Z,97175.00
2023-02-02T08:42:10.537Z,97183.66
2023-02-02T08:43:12.345Z,97176.59
2023-02-02T08:44:18.534Z,97182.56
2023-02-02T08:46:13.693Z,97163.88
2023-02-02T08:46:43.621Z,97170.13
2023-02-02T08:47:50.413Z,97178.50
2023-02-02T08:48:57.914Z,97173.75
2023-02-02T08:49:59.786Z,97175.50
2023-02-02T08:51:01.998Z,97174.16
2023-02-02T08:52:04.049Z,97179.19
2023-02-02T08:53:05.883Z,97171.47
2023-02-02T08:54:07.723Z,97168.75
2023-02-02T08:55:09.892Z,97164.13
2023-02-02T08:56:15.846Z,97172.13
2023-02-02T08:57:17.813Z,97182.28
2023-02-02T08:58:19.670Z,97177.94
2023-02-02T08:59:21.468Z,97174.69
2023-02-02T09:00:23.518Z,97188.53
2023-02-02T09:01:29.885Z,97173.91
2023-02-02T09:02:31.918Z,97191.78
2023-02-02T09:03:34.017Z,97188.25
2023-02-02T09:04:35.971Z,97186.34
2023-02-02T09:05:38.936Z,97189.75
2023-02-02T09:06:41.193Z,97187.00
2023-02-02T09:07:43.196Z,97183.63
2023-02-02T09:08:45.700Z,97192.00
2023-02-02T09:09:47.561Z,97198.81
2023-02-02T09:10:49.369Z,97188.50
2023-02-02T09:11:51.231Z,97189.56
2023-02-02T09:12:53.110Z,97192.00
2023-02-02T09:13:56.272Z,97190.91
2023-02-02T09:14:58.548Z,97180.34
2023-02-02T09:16:01.412Z,97184.69
2023-02-02T09:17:03.370Z,97192.81
2023-02-02T09:18:05.324Z,97178.47
2023-02-02T09:19:07.400Z,97171.72
2023-02-02T09:20:10.006Z,97188.63
2023-02-02T09:21:13.123Z,97187.53
2023-02-02T09:22:15.039Z,97190.09
2023-02-02T09:23:16.997Z,97190.78
2023-02-02T09:24:18.911Z,97188.88
2023-02-02T09:25:20.833Z,97186.44
2023-02-02T09:26:24.428Z,97186.16
2023-02-02T09:27:26.300Z,97201.16
2023-02-02T09:28:28.286Z,97199.84
2023-02-02T09:29:30.099Z,97195.91
2023-02-02T09:30:31.956Z,97195.56
2023-02-02T09:31:35.108Z,97204.50
2023-02-02T09:32:37.059Z,97198.53
2023-02-02T09:33:39.053Z,97192.72
2023-02-02T09:34:41.107Z,97206.13
2023-02-02T09:35:42.994Z,97210.59
2023-02-02T09:36:44.986Z,97207.34
2023-02-02T09:37:46.893Z,97204.38
2023-02-02T09:38:49.557Z,97204.38
2023-02-02T09:39:51.311Z,97201.53
2023-02-02T09:40:53.211Z,97209.13
2023-02-02T09:42:00.162Z,97199.63
2023-02-02T09:43:01.954Z,97203.00
2023-02-02T09:44:03.815Z,97207.34
2023-02-02T09:45:15.426Z,97203.16
2023-02-02T09:46:35.790Z,97209.41
2023-02-02T09:47:58.838Z,97211.06
2023-02-02T09:49:02.618Z,97205.94
2023-02-02T09:50:12.027Z,97207.59
2023-02-02T09:51:17.342Z,97207.16
2023-02-02T09:52:23.702Z,97197.78
2023-02-02T09:53:36.624Z,97204.06
2023-02-02T09:54:45.343Z,97208.16
2023-02-02T09:55:50.579Z,97206.28
2023-02-02T09:56:56.187Z,97212.34
2023-02-02T09:58:19.746Z,97212.22
2023-02-02T09:59:27.973Z,97210.31
2023-02-02T10:00:32.110Z,97213.03
2023-02-02T10:01:39.418Z,97222.38
2023-02-02T10:02:44.810Z,97226.69
2023-02-02T10:03:55.462Z,97219.63
2023-02-02T10:05:02.519Z,97218.72
2023-02-02T10:06:24.594Z,97220.19
2023-02-02T10:07:41.242Z,97221.38
2023-02-02T10:08:45.366Z,97224.63
2023-02-02T10:09:49.393Z,97221.78
2023-02-02T10:10:52.127Z,97207.28
2023-02-02T10:11:53.971Z,97205.38
2023-02-02T10:13:04.324Z,97210.94
2023-02-02T10:14:14.564Z,97215.00
2023-02-02T10:15:18.056Z,97208.63
2023-02-02T10:16:20.109Z,97211.59
2023-02-02T10:17:22.047Z,97216.75
2023-02-02T10:18:41.216Z,97222.56
2023-02-02T10:19:48.661Z,97221.75
2023-02-02T10:20:59.586Z,97208.06
2023-02-02T10:22:15.452Z,97211.88
2023-02-02T10:23:27.150Z,97200.63
2023-02-02T10:24:30.073Z,97214.00
2023-02-02T10:25:33.617Z,97217.78
2023-02-02T10:26:40.115Z,97207.63
2023-02-02T10:27:46.326Z,97201.00
2023-02-02T10:29:00.433Z,97204.56
2023-02-02T10:30:03.813Z,97214.53
2023-02-02T10:31:10.077Z,97220.50
2023-02-02T10:32:22.924Z,97211.03
2023-02-02T10:33:30.570Z,97213.63
2023-02-02T10:34:42.066Z,97214.28
2023-02-02T10:35:54.406Z,97210.88
2023-02-02T10:37:14.919Z,97205.59
2023-02-02T10:38:22.376Z,97208.84
2023-02-02T10:39:27.216Z,97209.13
2023-02-02T10:40:37.483Z,97210.88
2023-02-02T10:41:39.519Z,97215.22
2023-02-02T10:42:41.341Z,97212.38
2023-02-02T10:44:00.193Z,97217.34
2023-02-02T10:45:04.672Z,97209.50
2023-02-02T10:46:10.265Z,97208.44
2023-02-02T10:47:16.958Z,97208.56
2023-02-02T10:48:24.027Z,97219.44
2023-02-02T10:49:38.908Z,97219.69
2023-02-02T10:50:43.634Z,97219.44
2023-02-02T10:51:55.619Z,97207.22
2023-02-02T10:53:01.961Z,97202.22
2023-02-02T10:54:08.747Z,97205.88
2023-02-02T10:55:10.588Z,97202.78
2023-02-02T10:56:15.086Z,97204.56
2023-02-02T10:57:20.252Z,97214.84
2023-02-02T10:58:51.505Z,97214.53
2023-02-02T11:00:01.560Z,97210.75
2023-02-02T11:01:05.629Z,97203.16
2023-02-02T11:02:20.781Z,97203.03
2023-02-02T11:03:27.854Z,97205.78
2023-02-02T11:04:48.169Z,97199.66
2023-02-02T11:06:08.333Z,97205.34
2023-02-02T11:07:10.954Z,97213.63
2023-02-02T11:08:14.289Z,97214.28
2023-02-02T11:09:25.007Z,97211.53
2023-02-02T11:10:27.207Z,97209.81
2023-02-02T11:11:29.696Z,97211.84
2023-02-02T11:12:34.497Z,97215.22
2023-02-02T11:13:39.918Z,97213.44
2023-02-02T11:14:54.750Z,97216.19
2023-02-02T11:16:14.705Z,97205.88
2023-02-02T11:17:24.256Z,97199.91
2023-02-02T11:18:28.484Z,97215.34
2023-02-02T11:19:31.143Z,97212.66
2023-02-02T11:20:34.785Z,97221.34
2023-02-02T11:21:38.312Z,97218.59
2023-02-02T11:22:40.579Z,97210.19
2023-02-02T11:23:51.438Z,97214.41
2023-02-02T11:24:53.981Z,97202.66
2023-02-02T11:26:00.393Z,97217.41
2023-02-02T11:27:07.793Z,97211.59
2023-02-02T11:28:13.969Z,97215.13
2023-02-02T11:29:18.904Z,97218.34
2023-02-02T11:30:37.449Z,97219.03
2023-02-02T11:31:39.407Z,97211.97
2023-02-02T11:32:42.132Z,97219.56
2023-02-02T11:33:43.965Z,97217.94
2023-02-02T11:34:46.020Z,97217.78
2023-02-02T11:36:14.217Z,97222.00
2023-02-02T11:37:20.948Z,97222.00
2023-02-02T11:38:22.925Z,97214.94
2023-02-02T11:39:25.311Z,97214.94
2023-02-02T11:40:29.342Z,97208.84
2023-02-02T11:41:32.149Z,97224.28
2023-02-02T11:42:34.311Z,97228.91
2023-02-02T11:43:51.327Z,97225.66
2023-02-02T11:44:56.096Z,97216.47
2023-02-02T11:46:04.548Z,97221.59
2023-02-02T11:47:06.897Z,97218.66
2023-02-02T11:48:14.506Z,97216.34
2023-02-02T11:49:19.195Z,97216.22
2023-02-02T11:50:25.237Z,97211.59
2023-02-02T11:51:28.629Z,97216.31
2023-02-02T11:52:32.826Z,97210.75
2023-02-02T11:53:35.833Z,97208.84
2023-02-02T11:54:38.493Z,97211.13
2023-02-02T11:55:43.550Z,97211.81
2023-02-02T11:56:50.194Z,97211.00
2023-02-02T11:58:12.185Z,97205.03
2023-02-02T11:59:37.121Z,97206.66
2023-02-02T12:00:48.994Z,97202.59
2023-02-02T12:01:50.822Z,97200.16
2023-02-02T12:02:52.911Z,97205.31
2023-02-02T12:03:56.698Z,97195.97
2023-02-02T12:05:14.792Z,97193.38
2023-02-02T12:06:21.485Z,97189.03
2023-02-02T12:07:23.236Z,97185.66
2023-02-02T12:08:25.880Z,97188.25
2023-02-02T12:09:28.636Z,97190.94
2023-02-02T12:10:50.710Z,97184.06
2023-02-02T12:12:16.809Z,97184.19
2023-02-02T12:13:27.608Z,97174.69
2023-02-02T12:14:52.823Z,97180.94
2023-02-02T12:15:54.676Z,97186.91
2023-02-02T12:17:03.453Z,97191.25
2023-02-02T12:18:05.268Z,97186.09
2023-02-02T12:19:13.176Z,97185.97
2023-02-02T12:20:24.446Z,97188.25
2023-02-02T12:21:41.296Z,97183.09
2023-02-02T12:23:01.857Z,97190.00
2023-02-02T12:24:19.007Z,97187.28
2023-02-02T12:25:39.611Z,97191.47
2023-02-02T12:26:48.022Z,97183.38
2023-02-02T12:28:06.529Z,97179.19
2023-02-02T12:29:08.306Z,97181.22
2023-02-02T12:30:10.330Z,97183.00
2023-02-02T12:31:30.854Z,97182.31
2023-02-02T12:32:51.496Z,97174.91
2023-02-02T12:34:07.219Z,97174.06
2023-02-02T12:35:30.283Z,97177.47
2023-02-02T12:36:50.633Z,97178.94
2023-02-02T12:38:18.958Z,97171.75